sensor_id;sensor_type;location;lat;lon;timestamp;temperature;humidity
14877;DHT22;69691;48.172;17.070;2023-07-09T00:01:13;19.40;77.30
14877;DHT22;69691;48.172;17.070;2023-07-09T00:03:46;19.30;77.40
14877;DHT22;69691;48.172;17.070;2023-07-09T00:06:17;19.30;77.40
14877;DHT22;69691;48.172;17.070;2023-07-09T00:08:45;19.30;77.60
14877;DHT22;69691;48.172;17.070;2023-07-09T00:11:14;19.30;77.40
14877;DHT22;69691;48.172;17.070;2023-07-09T00:13:41;19.30;77.60
14877;DHT22;69691;48.172;17.070;2023-07-09T00:16:16;19.20;77.80
14877;DHT22;69691;48.172;17.070;2023-07-09T00:18:45;19.20;78.20
14877;DHT22;69691;48.172;17.070;2023-07-09T00:21:17;19.20;79.10
14877;DHT22;69691;48.172;17.070;2023-07-09T00:23:46;19.10;78.40
14877;DHT22;69691;48.172;17.070;2023-07-09T00:34:04;19.10;78.70
14877;DHT22;69691;48.172;17.070;2023-07-09T00:36:31;19.10;79.10
14877;DHT22;69691;48.172;17.070;2023-07-09T00:38:57;19.00;79.30
14877;DHT22;69691;48.172;17.070;2023-07-09T00:41:25;19.00;79.50
14877;DHT22;69691;48.172;17.070;2023-07-09T00:43:52;19.00;79.70
14877;DHT22;69691;48.172;17.070;2023-07-09T00:49:07;19.00;80.20
14877;DHT22;69691;48.172;17.070;2023-07-09T00:51:40;19.00;80.30
14877;DHT22;69691;48.172;17.070;2023-07-09T00:54:28;19.00;80.40
14877;DHT22;69691;48.172;17.070;2023-07-09T00:57:00;18.90;80.50
14877;DHT22;69691;48.172;17.070;2023-07-09T00:59:29;18.90;80.70
14877;DHT22;69691;48.172;17.070;2023-07-09T01:01:57;18.90;80.90
14877;DHT22;69691;48.172;17.070;2023-07-09T01:04:27;18.90;80.80
14877;DHT22;69691;48.172;17.070;2023-07-09T01:06:55;19.00;81.10
14877;DHT22;69691;48.172;17.070;2023-07-09T01:09:23;18.90;81.20
14877;DHT22;69691;48.172;17.070;2023-07-09T01:11:50;18.90;81.40
14877;DHT22;69691;48.172;17.070;2023-07-09T01:14:19;18.90;81.30
14877;DHT22;69691;48.172;17.070;2023-07-09T01:16:50;18.90;81.40
14877;DHT22;69691;48.172;17.070;2023-07-09T01:19:25;18.80;82.50
14877;DHT22;69691;48.172;17.070;2023-07-09T01:21:59;18.80;82.00
14877;DHT22;69691;48.172;17.070;2023-07-09T01:24:55;18.80;82.00
14877;DHT22;69691;48.172;17.070;2023-07-09T01:27:34;18.80;81.90
14877;DHT22;69691;48.172;17.070;2023-07-09T01:30:12;18.70;81.90
14877;DHT22;69691;48.172;17.070;2023-07-09T01:32:41;18.70;82.20
14877;DHT22;69691;48.172;17.070;2023-07-09T01:35:12;18.70;82.20
14877;DHT22;69691;48.172;17.070;2023-07-09T01:37:41;18.70;82.30
14877;DHT22;69691;48.172;17.070;2023-07-09T01:40:08;18.70;82.40
14877;DHT22;69691;48.172;17.070;2023-07-09T01:42:36;18.70;82.40
14877;DHT22;69691;48.172;17.070;2023-07-09T01:45:06;18.70;82.40
14877;DHT22;69691;48.172;17.070;2023-07-09T01:47:33;18.80;82.50
14877;DHT22;69691;48.172;17.070;2023-07-09T01:49:58;18.80;82.40
14877;DHT22;69691;48.172;17.070;2023-07-09T01:52:30;18.80;82.50
14877;DHT22;69691;48.172;17.070;2023-07-09T01:54:57;18.80;82.70
14877;DHT22;69691;48.172;17.070;2023-07-09T01:57:26;18.70;82.80
14877;DHT22;69691;48.172;17.070;2023-07-09T02:00:05;18.70;83.00
14877;DHT22;69691;48.172;17.070;2023-07-09T02:02:43;18.70;83.10
14877;DHT22;69691;48.172;17.070;2023-07-09T02:05:16;18.70;83.10
14877;DHT22;69691;48.172;17.070;2023-07-09T02:07:44;18.70;83.20
14877;DHT22;69691;48.172;17.070;2023-07-09T02:10:11;18.70;82.60
14877;DHT22;69691;48.172;17.070;2023-07-09T02:12:37;18.70;83.30
14877;DHT22;69691;48.172;17.070;2023-07-09T02:15:04;18.70;83.30
14877;DHT22;69691;48.172;17.070;2023-07-09T02:17:30;18.70;83.40
14877;DHT22;69691;48.172;17.070;2023-07-09T02:19:56;18.70;83.30
14877;DHT22;69691;48.172;17.070;2023-07-09T02:22:22;18.70;83.30
14877;DHT22;69691;48.172;17.070;2023-07-09T02:24:47;18.70;83.70
14877;DHT22;69691;48.172;17.070;2023-07-09T02:27:16;18.70;83.90
14877;DHT22;69691;48.172;17.070;2023-07-09T02:29:43;18.70;84.10
14877;DHT22;69691;48.172;17.070;2023-07-09T02:32:20;18.70;84.20
14877;DHT22;69691;48.172;17.070;2023-07-09T02:34:49;18.70;84.30
14877;DHT22;69691;48.172;17.070;2023-07-09T02:37:23;18.70;84.50
14877;DHT22;69691;48.172;17.070;2023-07-09T02:39:50;18.60;84.70
14877;DHT22;69691;48.172;17.070;2023-07-09T02:42:18;18.60;84.90
14877;DHT22;69691;48.172;17.070;2023-07-09T02:44:47;18.60;85.10
14877;DHT22;69691;48.172;17.070;2023-07-09T02:47:13;18.60;85.20
14877;DHT22;69691;48.172;17.070;2023-07-09T02:49:40;18.50;85.50
14877;DHT22;69691;48.172;17.070;2023-07-09T02:52:06;18.50;85.80
14877;DHT22;69691;48.172;17.070;2023-07-09T02:54:33;18.50;86.10
14877;DHT22;69691;48.172;17.070;2023-07-09T02:56:59;18.40;86.20
14877;DHT22;69691;48.172;17.070;2023-07-09T02:59:25;18.40;86.40
14877;DHT22;69691;48.172;17.070;2023-07-09T03:01:52;18.40;86.70
14877;DHT22;69691;48.172;17.070;2023-07-09T03:04:18;18.40;86.70
14877;DHT22;69691;48.172;17.070;2023-07-09T03:06:46;18.40;86.80
14877;DHT22;69691;48.172;17.070;2023-07-09T03:09:11;18.40;86.90
14877;DHT22;69691;48.172;17.070;2023-07-09T03:11:38;18.40;87.10
14877;DHT22;69691;48.172;17.070;2023-07-09T03:14:04;18.50;87.20
14877;DHT22;69691;48.172;17.070;2023-07-09T03:16:32;18.50;87.00
14877;DHT22;69691;48.172;17.070;2023-07-09T03:18:59;18.50;86.70
14877;DHT22;69691;48.172;17.070;2023-07-09T03:21:27;18.60;86.60
14877;DHT22;69691;48.172;17.070;2023-07-09T03:23:54;18.60;86.40
14877;DHT22;69691;48.172;17.070;2023-07-09T03:26:20;18.70;86.40
14877;DHT22;69691;48.172;17.070;2023-07-09T03:28:47;18.60;87.10
14877;DHT22;69691;48.172;17.070;2023-07-09T03:31:13;18.70;86.60
14877;DHT22;69691;48.172;17.070;2023-07-09T03:33:39;18.70;86.60
14877;DHT22;69691;48.172;17.070;2023-07-09T03:36:05;18.70;86.60
14877;DHT22;69691;48.172;17.070;2023-07-09T03:38:31;18.70;86.60
14877;DHT22;69691;48.172;17.070;2023-07-09T03:40:57;18.70;86.70
14877;DHT22;69691;48.172;17.070;2023-07-09T03:43:24;18.80;86.70
14877;DHT22;69691;48.172;17.070;2023-07-09T03:45:51;18.90;86.90
14877;DHT22;69691;48.172;17.070;2023-07-09T03:48:18;18.90;85.60
14877;DHT22;69691;48.172;17.070;2023-07-09T03:50:46;19.00;85.40
14877;DHT22;69691;48.172;17.070;2023-07-09T03:53:13;19.10;85.10
14877;DHT22;69691;48.172;17.070;2023-07-09T03:55:40;19.20;84.90
14877;DHT22;69691;48.172;17.070;2023-07-09T03:58:06;19.20;84.60
14877;DHT22;69691;48.172;17.070;2023-07-09T04:00:33;19.20;84.30
14877;DHT22;69691;48.172;17.070;2023-07-09T04:02:59;19.30;84.20
14877;DHT22;69691;48.172;17.070;2023-07-09T04:05:26;19.30;84.10
14877;DHT22;69691;48.172;17.070;2023-07-09T04:07:53;19.40;84.20
14877;DHT22;69691;48.172;17.070;2023-07-09T04:10:19;19.40;84.10
14877;DHT22;69691;48.172;17.070;2023-07-09T04:12:45;19.40;84.00
14877;DHT22;69691;48.172;17.070;2023-07-09T04:15:12;19.50;84.00
14877;DHT22;69691;48.172;17.070;2023-07-09T04:17:39;19.50;84.00
14877;DHT22;69691;48.172;17.070;2023-07-09T04:20:07;19.60;83.80
14877;DHT22;69691;48.172;17.070;2023-07-09T04:22:35;19.70;83.60
14877;DHT22;69691;48.172;17.070;2023-07-09T04:25:02;19.70;83.40
14877;DHT22;69691;48.172;17.070;2023-07-09T04:27:30;19.80;83.30
14877;DHT22;69691;48.172;17.070;2023-07-09T04:29:56;19.90;83.10
14877;DHT22;69691;48.172;17.070;2023-07-09T04:32:22;19.90;82.60
14877;DHT22;69691;48.172;17.070;2023-07-09T04:34:48;20.00;82.50
14877;DHT22;69691;48.172;17.070;2023-07-09T04:37:15;20.10;82.50
14877;DHT22;69691;48.172;17.070;2023-07-09T04:39:44;20.10;82.40
14877;DHT22;69691;48.172;17.070;2023-07-09T04:42:12;20.30;82.70
14877;DHT22;69691;48.172;17.070;2023-07-09T04:44:40;20.30;83.30
14877;DHT22;69691;48.172;17.070;2023-07-09T04:47:06;20.40;82.50
14877;DHT22;69691;48.172;17.070;2023-07-09T04:49:32;20.50;82.50
14877;DHT22;69691;48.172;17.070;2023-07-09T04:51:58;20.60;82.40
14877;DHT22;69691;48.172;17.070;2023-07-09T04:54:25;20.70;82.30
14877;DHT22;69691;48.172;17.070;2023-07-09T04:56:53;20.80;82.00
14877;DHT22;69691;48.172;17.070;2023-07-09T04:59:22;20.90;81.80
14877;DHT22;69691;48.172;17.070;2023-07-09T05:01:49;21.00;81.60
14877;DHT22;69691;48.172;17.070;2023-07-09T05:04:15;21.10;80.70
14877;DHT22;69691;48.172;17.070;2023-07-09T05:06:41;21.20;80.10
14877;DHT22;69691;48.172;17.070;2023-07-09T05:09:07;21.30;79.60
14877;DHT22;69691;48.172;17.070;2023-07-09T05:11:35;21.40;78.60
14877;DHT22;69691;48.172;17.070;2023-07-09T05:14:02;21.50;78.70
14877;DHT22;69691;48.172;17.070;2023-07-09T05:16:29;21.60;78.00
14877;DHT22;69691;48.172;17.070;2023-07-09T05:18:55;21.90;78.20
14877;DHT22;69691;48.172;17.070;2023-07-09T05:21:21;22.70;78.00
14877;DHT22;69691;48.172;17.070;2023-07-09T05:23:47;24.00;74.20
14877;DHT22;69691;48.172;17.070;2023-07-09T05:26:12;25.20;67.70
14877;DHT22;69691;48.172;17.070;2023-07-09T05:28:38;26.30;62.80
14877;DHT22;69691;48.172;17.070;2023-07-09T05:31:06;27.50;58.20
14877;DHT22;69691;48.172;17.070;2023-07-09T05:33:32;28.40;55.80
14877;DHT22;69691;48.172;17.070;2023-07-09T05:35:58;29.30;53.50
14877;DHT22;69691;48.172;17.070;2023-07-09T05:38:24;30.10;51.00
14877;DHT22;69691;48.172;17.070;2023-07-09T05:41:02;30.90;49.00
14877;DHT22;69691;48.172;17.070;2023-07-09T05:43:28;31.60;46.00
14877;DHT22;69691;48.172;17.070;2023-07-09T05:45:55;32.20;45.20
14877;DHT22;69691;48.172;17.070;2023-07-09T05:48:21;32.60;44.00
14877;DHT22;69691;48.172;17.070;2023-07-09T05:50:48;33.10;42.80
14877;DHT22;69691;48.172;17.070;2023-07-09T05:53:17;33.40;41.60
14877;DHT22;69691;48.172;17.070;2023-07-09T05:55:43;33.80;40.50
14877;DHT22;69691;48.172;17.070;2023-07-09T05:58:09;34.10;39.90
14877;DHT22;69691;48.172;17.070;2023-07-09T06:00:34;34.40;39.20
14877;DHT22;69691;48.172;17.070;2023-07-09T06:03:03;34.50;38.90
14877;DHT22;69691;48.172;17.070;2023-07-09T06:05:33;34.70;37.90
14877;DHT22;69691;48.172;17.070;2023-07-09T06:07:59;34.90;36.50
14877;DHT22;69691;48.172;17.070;2023-07-09T06:10:25;35.20;35.80
14877;DHT22;69691;48.172;17.070;2023-07-09T06:12:51;35.40;35.70
14877;DHT22;69691;48.172;17.070;2023-07-09T06:15:18;35.50;35.40
14877;DHT22;69691;48.172;17.070;2023-07-09T06:17:44;35.70;35.70
14877;DHT22;69691;48.172;17.070;2023-07-09T06:20:10;35.80;35.90
14877;DHT22;69691;48.172;17.070;2023-07-09T06:22:36;35.80;36.00
14877;DHT22;69691;48.172;17.070;2023-07-09T06:25:02;35.90;35.80
14877;DHT22;69691;48.172;17.070;2023-07-09T06:27:28;36.00;35.50
14877;DHT22;69691;48.172;17.070;2023-07-09T06:29:54;36.10;35.10
14877;DHT22;69691;48.172;17.070;2023-07-09T06:32:20;36.00;35.10
14877;DHT22;69691;48.172;17.070;2023-07-09T06:34:45;36.00;35.00
14877;DHT22;69691;48.172;17.070;2023-07-09T06:37:11;35.90;35.40
14877;DHT22;69691;48.172;17.070;2023-07-09T06:39:37;35.90;35.00
14877;DHT22;69691;48.172;17.070;2023-07-09T06:42:03;35.80;35.10
14877;DHT22;69691;48.172;17.070;2023-07-09T06:44:49;35.70;35.40
14877;DHT22;69691;48.172;17.070;2023-07-09T06:47:15;35.90;35.60
14877;DHT22;69691;48.172;17.070;2023-07-09T06:49:40;35.90;35.50
14877;DHT22;69691;48.172;17.070;2023-07-09T06:52:06;35.90;35.10
14877;DHT22;69691;48.172;17.070;2023-07-09T06:54:32;35.90;35.20
14877;DHT22;69691;48.172;17.070;2023-07-09T06:56:58;35.80;35.50
14877;DHT22;69691;48.172;17.070;2023-07-09T06:59:24;35.70;35.50
14877;DHT22;69691;48.172;17.070;2023-07-09T07:01:50;35.70;35.80
14877;DHT22;69691;48.172;17.070;2023-07-09T07:04:15;35.70;35.60
14877;DHT22;69691;48.172;17.070;2023-07-09T07:06:41;35.40;35.70
14877;DHT22;69691;48.172;17.070;2023-07-09T07:09:07;35.50;35.80
14877;DHT22;69691;48.172;17.070;2023-07-09T07:11:34;35.50;35.40
14877;DHT22;69691;48.172;17.070;2023-07-09T07:14:00;35.60;35.60
14877;DHT22;69691;48.172;17.070;2023-07-09T07:16:25;35.70;35.30
14877;DHT22;69691;48.172;17.070;2023-07-09T07:18:51;35.70;35.60
14877;DHT22;69691;48.172;17.070;2023-07-09T07:21:17;35.50;35.90
14877;DHT22;69691;48.172;17.070;2023-07-09T07:23:43;35.40;36.00
14877;DHT22;69691;48.172;17.070;2023-07-09T07:26:09;35.40;36.00
14877;DHT22;69691;48.172;17.070;2023-07-09T07:28:35;35.60;36.00
14877;DHT22;69691;48.172;17.070;2023-07-09T07:31:03;35.60;35.60
14877;DHT22;69691;48.172;17.070;2023-07-09T07:33:31;35.60;35.40
14877;DHT22;69691;48.172;17.070;2023-07-09T07:35:57;35.40;35.40
14877;DHT22;69691;48.172;17.070;2023-07-09T07:38:22;35.10;36.10
14877;DHT22;69691;48.172;17.070;2023-07-09T07:40:49;35.30;36.10
14877;DHT22;69691;48.172;17.070;2023-07-09T07:43:14;35.30;36.00
14877;DHT22;69691;48.172;17.070;2023-07-09T07:45:44;35.30;36.30
14877;DHT22;69691;48.172;17.070;2023-07-09T07:48:10;35.40;36.50
14877;DHT22;69691;48.172;17.070;2023-07-09T07:50:36;35.10;36.80
14877;DHT22;69691;48.172;17.070;2023-07-09T07:53:03;35.00;36.10
14877;DHT22;69691;48.172;17.070;2023-07-09T07:55:30;35.10;36.40
14877;DHT22;69691;48.172;17.070;2023-07-09T07:57:56;35.20;36.60
14877;DHT22;69691;48.172;17.070;2023-07-09T08:00:28;35.00;36.50
14877;DHT22;69691;48.172;17.070;2023-07-09T08:02:54;34.80;36.70
14877;DHT22;69691;48.172;17.070;2023-07-09T08:05:20;34.80;36.80
14877;DHT22;69691;48.172;17.070;2023-07-09T08:07:45;34.80;37.10
14877;DHT22;69691;48.172;17.070;2023-07-09T08:10:12;34.70;37.10
14877;DHT22;69691;48.172;17.070;2023-07-09T08:12:38;34.60;37.30
14877;DHT22;69691;48.172;17.070;2023-07-09T08:15:04;34.60;37.50
14877;DHT22;69691;48.172;17.070;2023-07-09T08:17:31;34.60;37.70
14877;DHT22;69691;48.172;17.070;2023-07-09T08:19:57;34.50;37.60
14877;DHT22;69691;48.172;17.070;2023-07-09T08:22:24;34.40;37.80
14877;DHT22;69691;48.172;17.070;2023-07-09T08:24:50;34.20;38.10
14877;DHT22;69691;48.172;17.070;2023-07-09T08:27:17;34.10;38.50
14877;DHT22;69691;48.172;17.070;2023-07-09T08:29:43;34.20;38.90
14877;DHT22;69691;48.172;17.070;2023-07-09T08:32:11;34.00;38.90
14877;DHT22;69691;48.172;17.070;2023-07-09T08:34:38;33.90;39.20
14877;DHT22;69691;48.172;17.070;2023-07-09T08:37:07;33.80;39.40
14877;DHT22;69691;48.172;17.070;2023-07-09T08:39:33;33.60;39.30
14877;DHT22;69691;48.172;17.070;2023-07-09T08:42:13;33.50;39.50
14877;DHT22;69691;48.172;17.070;2023-07-09T08:45:03;33.30;39.90
14877;DHT22;69691;48.172;17.070;2023-07-09T08:50:27;33.00;40.80
14877;DHT22;69691;48.172;17.070;2023-07-09T08:53:01;32.80;41.60
14877;DHT22;69691;48.172;17.070;2023-07-09T08:55:29;32.70;40.70
14877;DHT22;69691;48.172;17.070;2023-07-09T08:58:03;32.50;40.30
14877;DHT22;69691;48.172;17.070;2023-07-09T09:01:06;32.30;40.30
14877;DHT22;69691;48.172;17.070;2023-07-09T09:03:52;32.20;39.70
14877;DHT22;69691;48.172;17.070;2023-07-09T09:06:30;32.00;40.40
14877;DHT22;69691;48.172;17.070;2023-07-09T09:09:19;31.90;41.30
14877;DHT22;69691;48.172;17.070;2023-07-09T09:12:03;31.80;41.60
14877;DHT22;69691;48.172;17.070;2023-07-09T09:14:43;31.70;41.30
14877;DHT22;69691;48.172;17.070;2023-07-09T09:17:20;31.60;39.10
14877;DHT22;69691;48.172;17.070;2023-07-09T09:19:55;31.50;38.80
14877;DHT22;69691;48.172;17.070;2023-07-09T09:22:40;31.60;38.50
14877;DHT22;69691;48.172;17.070;2023-07-09T09:25:21;31.60;37.70
14877;DHT22;69691;48.172;17.070;2023-07-09T09:27:50;31.60;35.30
14877;DHT22;69691;48.172;17.070;2023-07-09T09:30:21;31.70;36.50
14877;DHT22;69691;48.172;17.070;2023-07-09T09:32:59;31.70;36.50
14877;DHT22;69691;48.172;17.070;2023-07-09T09:35:31;31.80;37.00
14877;DHT22;69691;48.172;17.070;2023-07-09T09:38:19;31.70;36.30
14877;DHT22;69691;48.172;17.070;2023-07-09T09:40:47;31.70;34.80
14877;DHT22;69691;48.172;17.070;2023-07-09T09:43:18;31.70;35.00
14877;DHT22;69691;48.172;17.070;2023-07-09T09:45:49;31.90;35.40
14877;DHT22;69691;48.172;17.070;2023-07-09T09:48:25;32.00;34.50
14877;DHT22;69691;48.172;17.070;2023-07-09T09:50:54;32.10;34.80
14877;DHT22;69691;48.172;17.070;2023-07-09T09:53:24;32.20;35.20
14877;DHT22;69691;48.172;17.070;2023-07-09T09:55:55;32.30;33.30
14877;DHT22;69691;48.172;17.070;2023-07-09T09:58:27;32.30;29.10
14877;DHT22;69691;48.172;17.070;2023-07-09T10:00:56;32.30;29.50
14877;DHT22;69691;48.172;17.070;2023-07-09T10:03:32;32.30;29.80
14877;DHT22;69691;48.172;17.070;2023-07-09T10:06:05;32.30;30.30
14877;DHT22;69691;48.172;17.070;2023-07-09T10:08:56;32.40;30.40
14877;DHT22;69691;48.172;17.070;2023-07-09T10:11:45;32.40;30.60
14877;DHT22;69691;48.172;17.070;2023-07-09T10:14:41;32.40;30.10
14877;DHT22;69691;48.172;17.070;2023-07-09T10:17:18;32.40;29.20
14877;DHT22;69691;48.172;17.070;2023-07-09T10:19:59;32.20;29.80
14877;DHT22;69691;48.172;17.070;2023-07-09T10:22:46;32.20;31.00
14877;DHT22;69691;48.172;17.070;2023-07-09T10:25:40;32.30;31.70
14877;DHT22;69691;48.172;17.070;2023-07-09T10:31:24;32.50;31.00
14877;DHT22;69691;48.172;17.070;2023-07-09T10:40:10;32.50;32.40
14877;DHT22;69691;48.172;17.070;2023-07-09T10:45:28;32.50;30.90
14877;DHT22;69691;48.172;17.070;2023-07-09T10:48:08;32.60;31.20
14877;DHT22;69691;48.172;17.070;2023-07-09T10:50:42;32.70;30.00
14877;DHT22;69691;48.172;17.070;2023-07-09T10:53:28;32.70;29.60
14877;DHT22;69691;48.172;17.070;2023-07-09T10:56:16;32.70;29.70
14877;DHT22;69691;48.172;17.070;2023-07-09T10:59:05;32.70;29.70
14877;DHT22;69691;48.172;17.070;2023-07-09T11:01:54;32.80;29.60
14877;DHT22;69691;48.172;17.070;2023-07-09T11:04:29;32.80;29.10
14877;DHT22;69691;48.172;17.070;2023-07-09T11:07:03;32.70;29.10
14877;DHT22;69691;48.172;17.070;2023-07-09T11:09:33;32.70;29.50
14877;DHT22;69691;48.172;17.070;2023-07-09T11:12:11;32.80;29.40
14877;DHT22;69691;48.172;17.070;2023-07-09T11:14:45;32.80;29.30
14877;DHT22;69691;48.172;17.070;2023-07-09T11:17:26;32.90;29.40
14877;DHT22;69691;48.172;17.070;2023-07-09T11:19:58;32.80;28.90
14877;DHT22;69691;48.172;17.070;2023-07-09T11:22:27;32.80;29.10
14877;DHT22;69691;48.172;17.070;2023-07-09T11:25:09;32.90;29.00
14877;DHT22;69691;48.172;17.070;2023-07-09T11:27:49;33.10;28.90
14877;DHT22;69691;48.172;17.070;2023-07-09T11:30:24;33.20;28.80
14877;DHT22;69691;48.172;17.070;2023-07-09T11:32:57;33.20;28.90
14877;DHT22;69691;48.172;17.070;2023-07-09T11:35:47;33.30;29.30
14877;DHT22;69691;48.172;17.070;2023-07-09T11:38:21;33.50;28.70
14877;DHT22;69691;48.172;17.070;2023-07-09T11:40:53;33.40;28.00
14877;DHT22;69691;48.172;17.070;2023-07-09T11:43:34;33.50;27.40
14877;DHT22;69691;48.172;17.070;2023-07-09T11:46:11;33.40;27.30
14877;DHT22;69691;48.172;17.070;2023-07-09T11:48:41;33.40;27.30
14877;DHT22;69691;48.172;17.070;2023-07-09T11:51:16;33.40;27.60
14877;DHT22;69691;48.172;17.070;2023-07-09T11:53:53;33.30;28.10
14877;DHT22;69691;48.172;17.070;2023-07-09T11:56:23;33.30;27.80
14877;DHT22;69691;48.172;17.070;2023-07-09T11:58:52;33.30;27.90
14877;DHT22;69691;48.172;17.070;2023-07-09T12:01:33;33.30;27.50
14877;DHT22;69691;48.172;17.070;2023-07-09T12:04:01;33.40;27.80
14877;DHT22;69691;48.172;17.070;2023-07-09T12:06:29;33.30;27.70
14877;DHT22;69691;48.172;17.070;2023-07-09T12:08:57;33.40;27.80
14877;DHT22;69691;48.172;17.070;2023-07-09T12:11:29;33.40;27.80
14877;DHT22;69691;48.172;17.070;2023-07-09T12:14:15;33.30;28.10
14877;DHT22;69691;48.172;17.070;2023-07-09T12:16:45;33.20;27.60
14877;DHT22;69691;48.172;17.070;2023-07-09T12:19:14;32.90;27.40
14877;DHT22;69691;48.172;17.070;2023-07-09T12:21:44;32.60;27.60
14877;DHT22;69691;48.172;17.070;2023-07-09T12:24:19;32.50;28.00
14877;DHT22;69691;48.172;17.070;2023-07-09T12:27:23;32.50;28.40
14877;DHT22;69691;48.172;17.070;2023-07-09T12:29:53;32.60;28.50
14877;DHT22;69691;48.172;17.070;2023-07-09T12:32:20;32.70;28.70
14877;DHT22;69691;48.172;17.070;2023-07-09T12:34:52;32.80;28.20
14877;DHT22;69691;48.172;17.070;2023-07-09T12:37:20;32.80;27.70
14877;DHT22;69691;48.172;17.070;2023-07-09T12:39:50;33.00;27.40
14877;DHT22;69691;48.172;17.070;2023-07-09T12:42:25;33.10;26.70
14877;DHT22;69691;48.172;17.070;2023-07-09T12:44:56;33.10;26.60
14877;DHT22;69691;48.172;17.070;2023-07-09T12:47:24;33.10;26.80
14877;DHT22;69691;48.172;17.070;2023-07-09T12:49:50;33.20;27.00
14877;DHT22;69691;48.172;17.070;2023-07-09T12:52:21;33.30;26.80
14877;DHT22;69691;48.172;17.070;2023-07-09T12:55:01;33.40;26.70
14877;DHT22;69691;48.172;17.070;2023-07-09T12:57:29;33.40;26.40
14877;DHT22;69691;48.172;17.070;2023-07-09T12:59:56;33.30;26.20
14877;DHT22;69691;48.172;17.070;2023-07-09T13:02:25;33.30;26.30
14877;DHT22;69691;48.172;17.070;2023-07-09T13:05:04;33.30;26.30
14877;DHT22;69691;48.172;17.070;2023-07-09T13:07:34;33.40;26.80
14877;DHT22;69691;48.172;17.070;2023-07-09T13:10:18;33.30;26.70
14877;DHT22;69691;48.172;17.070;2023-07-09T13:12:52;33.30;27.20
14877;DHT22;69691;48.172;17.070;2023-07-09T13:18:03;33.50;26.90
14877;DHT22;69691;48.172;17.070;2023-07-09T13:20:31;33.40;27.10
14877;DHT22;69691;48.172;17.070;2023-07-09T13:22:58;33.30;27.40
14877;DHT22;69691;48.172;17.070;2023-07-09T13:25:24;33.30;27.80
14877;DHT22;69691;48.172;17.070;2023-07-09T13:27:50;33.30;27.50
14877;DHT22;69691;48.172;17.070;2023-07-09T13:30:17;33.30;27.40
14877;DHT22;69691;48.172;17.070;2023-07-09T13:32:45;33.30;27.40
14877;DHT22;69691;48.172;17.070;2023-07-09T13:35:17;33.40;27.70
14877;DHT22;69691;48.172;17.070;2023-07-09T13:37:46;33.40;27.30
14877;DHT22;69691;48.172;17.070;2023-07-09T13:40:14;33.40;27.90
14877;DHT22;69691;48.172;17.070;2023-07-09T13:42:42;33.40;28.30
14877;DHT22;69691;48.172;17.070;2023-07-09T13:45:24;33.40;28.30
14877;DHT22;69691;48.172;17.070;2023-07-09T13:47:52;33.30;28.30
14877;DHT22;69691;48.172;17.070;2023-07-09T13:50:19;33.30;28.20
14877;DHT22;69691;48.172;17.070;2023-07-09T13:52:45;33.30;28.90
14877;DHT22;69691;48.172;17.070;2023-07-09T13:55:18;33.40;28.30
14877;DHT22;69691;48.172;17.070;2023-07-09T13:57:45;33.40;28.40
14877;DHT22;69691;48.172;17.070;2023-07-09T14:00:12;33.30;28.40
14877;DHT22;69691;48.172;17.070;2023-07-09T14:02:38;33.30;28.30
14877;DHT22;69691;48.172;17.070;2023-07-09T14:05:06;33.20;28.10
14877;DHT22;69691;48.172;17.070;2023-07-09T14:07:35;33.30;28.10
14877;DHT22;69691;48.172;17.070;2023-07-09T14:10:05;33.30;28.30
14877;DHT22;69691;48.172;17.070;2023-07-09T14:12:34;33.20;28.70
14877;DHT22;69691;48.172;17.070;2023-07-09T14:15:12;33.20;28.60
14877;DHT22;69691;48.172;17.070;2023-07-09T14:17:40;33.30;28.70
14877;DHT22;69691;48.172;17.070;2023-07-09T14:20:08;33.30;28.30
14877;DHT22;69691;48.172;17.070;2023-07-09T14:22:37;33.40;28.10
14877;DHT22;69691;48.172;17.070;2023-07-09T14:25:04;33.40;27.60
14877;DHT22;69691;48.172;17.070;2023-07-09T14:27:31;33.40;28.20
14877;DHT22;69691;48.172;17.070;2023-07-09T14:29:57;33.40;29.20
14877;DHT22;69691;48.172;17.070;2023-07-09T14:32:36;33.30;29.60
14877;DHT22;69691;48.172;17.070;2023-07-09T14:35:16;33.30;29.80
14877;DHT22;69691;48.172;17.070;2023-07-09T14:37:46;33.30;29.50
14877;DHT22;69691;48.172;17.070;2023-07-09T14:40:14;33.30;30.90
14877;DHT22;69691;48.172;17.070;2023-07-09T14:42:41;33.30;30.50
14877;DHT22;69691;48.172;17.070;2023-07-09T14:45:27;33.30;30.30
14877;DHT22;69691;48.172;17.070;2023-07-09T14:47:57;33.30;30.50
14877;DHT22;69691;48.172;17.070;2023-07-09T14:50:23;33.20;30.50
14877;DHT22;69691;48.172;17.070;2023-07-09T14:52:50;33.20;30.40
14877;DHT22;69691;48.172;17.070;2023-07-09T14:55:18;33.20;30.00
14877;DHT22;69691;48.172;17.070;2023-07-09T14:57:47;33.20;29.70
14877;DHT22;69691;48.172;17.070;2023-07-09T15:00:21;33.20;29.90
14877;DHT22;69691;48.172;17.070;2023-07-09T15:02:49;33.20;28.90
14877;DHT22;69691;48.172;17.070;2023-07-09T15:05:24;33.20;31.20
14877;DHT22;69691;48.172;17.070;2023-07-09T15:07:51;33.10;31.80
14877;DHT22;69691;48.172;17.070;2023-07-09T15:10:21;33.10;31.20
14877;DHT22;69691;48.172;17.070;2023-07-09T15:12:49;33.00;32.00
14877;DHT22;69691;48.172;17.070;2023-07-09T15:15:27;33.00;31.40
14877;DHT22;69691;48.172;17.070;2023-07-09T15:17:55;33.00;30.60
14877;DHT22;69691;48.172;17.070;2023-07-09T15:20:25;33.00;30.50
14877;DHT22;69691;48.172;17.070;2023-07-09T15:22:53;33.00;31.20
14877;DHT22;69691;48.172;17.070;2023-07-09T15:25:23;32.90;31.40
14877;DHT22;69691;48.172;17.070;2023-07-09T15:27:50;32.90;31.70
14877;DHT22;69691;48.172;17.070;2023-07-09T15:30:21;32.80;31.40
14877;DHT22;69691;48.172;17.070;2023-07-09T15:32:49;32.80;31.90
14877;DHT22;69691;48.172;17.070;2023-07-09T15:35:17;32.80;31.80
14877;DHT22;69691;48.172;17.070;2023-07-09T15:37:45;32.70;32.30
14877;DHT22;69691;48.172;17.070;2023-07-09T15:40:23;32.60;31.70
14877;DHT22;69691;48.172;17.070;2023-07-09T15:42:57;32.60;31.40
14877;DHT22;69691;48.172;17.070;2023-07-09T15:45:26;32.60;31.60
14877;DHT22;69691;48.172;17.070;2023-07-09T15:47:52;32.60;31.90
14877;DHT22;69691;48.172;17.070;2023-07-09T15:50:22;32.50;33.90
14877;DHT22;69691;48.172;17.070;2023-07-09T15:52:53;32.40;32.80
14877;DHT22;69691;48.172;17.070;2023-07-09T15:55:24;32.30;34.10
14877;DHT22;69691;48.172;17.070;2023-07-09T15:57:53;32.30;33.70
14877;DHT22;69691;48.172;17.070;2023-07-09T16:00:23;32.20;34.40
14877;DHT22;69691;48.172;17.070;2023-07-09T16:02:52;32.10;35.20